Richards, Missouri
Current Conditions -  °F | °C
As of 10:15 AM on Thursday 29 Jan 2015 (Local Time) from KPTS Reporting Station
Overcast Overcast  
Wind Chill: 34°   Ceiling: 2400
Heat Index: 41°   Visibility: 10mi
Dew Point: 32°   Wind: 13mph
Humidity: 70%   Direction: 340°NNW
Pressure: 30.34"   Gusts: 25mph
Location:  37.91°N, 94.56°W
Report Text: KPTS 291615Z AUTO 34011G22KT 10SM OVC024 05/00 A3034 RMK AO2 T00501001
Loading
Personal Weather Stations






























Interactive Weather Map New forecast layout! Learn more

10-Day Weather Forecast

Advertisements
Track Severe Weather on mobile